Dorchester, Iowa
Current Conditions -  °F | °C
As of 12:15 PM on Thursday 27 Nov 2014 (Local Time) from KDEH Reporting Station
Clear Clear  
Wind Chill: -6°   Ceiling: Unl
Heat Index:   Visibility: 10mi
Dew Point: -4°   Wind: 10mph
Humidity: 57%   Direction: 350°N
Pressure: 30.42"   Gusts: NA
Location:  43.48°N, 91.51°W
Report Text: KDEH 271815Z AUTO 35009KT 10SM CLR M13/M20 A3042 RMK AO2
Loading
Personal Weather Stations






























Interactive Weather Map New forecast layout! Learn more

10-Day Weather Forecast

Advertisements
Track Severe Weather on mobile